Time;durP1;ratioP1;P1;durP2;ratioP2;P2;SDS_P1;SDS_P2;PMS_P1;PMS_P2;Temp;Humidity;BMP_temperature;BMP_pressure;BME280_temperature;BME280_humidity;BME280_pressure;Samples;Min_cycle;Max_cycle;Signal;HPM_P1;HPM_P2
2020/12/02 00:01:00;;;;;;;16.93;11.43;;;;;;;0.33;82.92;100586.48;1754074;80;21141;-62
2020/12/02 00:03:41;;;;;;;18.20;11.88;;;;;;;0.34;83.06;100587.33;1734147;80;21755;-62
2020/12/02 00:06:09;;;;;;;18.50;11.85;;;;;;;0.40;82.86;100590.59;1774102;80;21645;-62
2020/12/02 00:08:40;;;;;;;13.70;8.88;;;;;;;0.33;83.08;100596.36;1721595;81;21181;-62
2020/12/02 00:11:10;;;;;;;18.52;12.60;;;;;;;0.41;82.94;100593.09;1757180;80;21275;-62
2020/12/02 00:13:45;;;;;;;16.95;11.30;;;;;;;0.45;82.70;100592.22;1748662;80;21598;-62
2020/12/02 00:16:14;;;;;;;17.87;10.93;;;;;;;0.39;82.92;100588.95;1755615;80;21633;-62
2020/12/02 00:18:42;;;;;;;19.00;13.05;;;;;;;0.33;83.10;100590.50;1730703;81;21140;-62
2020/12/02 00:21:09;;;;;;;17.20;11.28;;;;;;;0.39;83.06;100592.97;1730508;81;21711;-61
2020/12/02 00:23:36;;;;;;;18.32;13.05;;;;;;;0.46;82.68;100586.66;1754117;80;21364;-61
2020/12/02 00:26:07;;;;;;;17.37;11.38;;;;;;;0.41;82.91;100591.76;1754122;82;21303;-62
2020/12/02 00:28:36;;;;;;;16.35;11.57;;;;;;;0.38;82.96;100594.81;1759313;80;21180;-62
2020/12/02 00:31:03;;;;;;;18.15;12.63;;;;;;;0.41;82.76;100594.44;1749139;80;21475;-62
2020/12/02 00:33:30;;;;;;;17.48;11.65;;;;;;;0.34;83.06;100596.19;1702323;82;21318;-62
2020/12/02 00:35:58;;;;;;;17.07;11.35;;;;;;;0.34;83.13;100599.37;1727305;81;21762;-62
2020/12/02 00:38:25;;;;;;;17.07;12.13;;;;;;;0.43;82.82;100594.23;1745632;80;21165;-61
2020/12/02 00:40:53;;;;;;;15.53;11.03;;;;;;;0.40;82.91;100593.27;1752101;80;21284;-62
2020/12/02 00:43:23;;;;;;;16.57;10.90;;;;;;;0.35;83.18;100598.37;1727957;82;21352;-62
2020/12/02 00:45:53;;;;;;;14.75;11.08;;;;;;;0.40;83.08;100599.97;1753703;80;21295;-62
2020/12/02 00:48:22;;;;;;;17.10;10.75;;;;;;;0.49;82.79;100597.03;1732151;81;21185;-62
2020/12/02 00:50:52;;;;;;;16.55;10.80;;;;;;;0.43;82.94;100595.06;1787328;80;21260;-62
2020/12/02 00:53:25;;;;;;;16.85;11.18;;;;;;;0.39;83.19;100591.09;1781363;80;21185;-61
2020/12/02 00:55:53;;;;;;;15.75;10.18;;;;;;;0.49;83.07;100598.37;1754139;80;21125;-62
2020/12/02 00:58:50;;;;;;;15.93;11.43;;;;;;;0.52;82.73;100599.84;1745259;82;21176;-62
2020/12/02 01:01:23;;;;;;;15.30;9.98;;;;;;;0.44;82.99;100595.91;1751950;82;21283;-62
2020/12/02 01:03:50;;;;;;;15.08;10.72;;;;;;;0.42;83.01;100594.77;1746210;80;21153;-61
2020/12/02 01:06:17;;;;;;;16.15;10.80;;;;;;;0.52;82.76;100597.66;1754280;80;21286;-62
2020/12/02 01:08:46;;;;;;;15.58;10.35;;;;;;;0.41;82.89;100599.80;1722098;80;21634;-61
2020/12/02 01:11:22;;;;;;;14.13;10.10;;;;;;;0.41;82.99;100590.92;1762366;80;21898;-61
2020/12/02 01:14:00;;;;;;;14.25;9.68;;;;;;;0.51;82.69;100592.80;1768221;80;21805;-61
2020/12/02 01:16:34;;;;;;;15.20;10.03;;;;;;;0.50;82.80;100585.27;1756187;80;21279;-62
2020/12/02 01:19:01;;;;;;;12.88;8.60;;;;;;;0.43;83.00;100583.02;1754694;81;21164;-63
2020/12/02 01:22:04;;;;;;;12.47;9.78;;;;;;;0.42;82.90;100576.02;1757318;80;21275;-62
2020/12/02 01:24:39;;;;;;;14.53;10.38;;;;;;;0.50;82.75;100577.73;1752163;80;21732;-62
2020/12/02 01:27:30;;;;;;;14.63;9.98;;;;;;;0.39;83.01;100573.69;1756412;80;21291;-62
2020/12/02 01:29:58;;;;;;;13.18;9.10;;;;;;;0.34;83.17;100577.95;1742878;80;21157;-62
2020/12/02 01:32:25;;;;;;;12.95;9.20;;;;;;;0.43;82.79;100572.30;1726683;80;21154;-62
2020/12/02 01:34:53;;;;;;;15.40;9.40;;;;;;;0.44;82.64;100574.47;1686326;82;21271;-61
2020/12/02 01:37:26;;;;;;;14.53;8.93;;;;;;;0.34;83.03;100569.91;1739839;80;21161;-62
2020/12/02 01:40:17;;;;;;;13.90;8.70;;;;;;;0.30;83.16;100568.11;1745170;80;21145;-62
2020/12/02 01:42:55;;;;;;;12.28;8.98;;;;;;;0.41;82.80;100565.48;1738171;80;21160;-61
2020/12/02 01:45:31;;;;;;;11.90;7.97;;;;;;;0.35;82.96;100565.73;1732699;80;21665;-62
2020/12/02 01:48:22;;;;;;;14.78;9.48;;;;;;;0.30;83.25;100568.11;1745115;80;21153;-62
2020/12/02 01:51:15;;;;;;;13.68;8.93;;;;;;;0.37;83.00;100558.32;1740279;82;21142;-62
2020/12/02 01:54:05;;;;;;;13.43;9.38;;;;;;;0.39;82.88;100554.12;1708301;80;21318;-61
2020/12/02 01:57:11;;;;;;;10.93;7.70;;;;;;;0.32;83.19;100555.89;1722875;81;21140;-62
2020/12/02 01:59:59;;;;;;;13.43;8.68;;;;;;;0.39;82.96;100556.81;1739598;82;21326;-62
2020/12/02 02:02:37;;;;;;;;;;;;;;;0.39;82.89;100553.59;1753578;81;21269;-62
2020/12/02 02:05:31;;;;;;;12.03;8.40;;;;;;;0.30;83.13;100553.39;1739062;80;20182;-62
2020/12/02 02:07:59;;;;;;;14.40;9.13;;;;;;;0.34;83.07;100550.66;1740961;82;21169;-62
2020/12/02 02:10:35;;;;;;;13.78;9.10;;;;;;;0.33;83.01;100554.34;1701088;82;21168;-61
2020/12/02 02:13:38;;;;;;;11.68;8.15;;;;;;;0.25;83.34;100559.80;1722355;80;21292;-62
2020/12/02 02:16:17;;;;;;;13.13;8.73;;;;;;;0.38;83.02;100558.66;1754758;79;22643;-63
2020/12/02 02:18:45;;;;;;;12.73;8.63;;;;;;;0.37;82.96;100556.98;1660372;85;21475;-63
2020/12/02 02:21:20;;;;;;;12.93;9.03;;;;;;;0.31;83.19;100552.37;1681877;85;21158;-62
2020/12/02 02:23:47;;;;;;;14.58;9.43;;;;;;;0.24;83.31;100554.14;1659537;85;21723;-63
2020/12/02 02:26:39;;;;;;;14.78;10.10;;;;;;;0.37;82.98;100551.63;1621215;85;21143;-64
2020/12/02 02:29:21;;;;;;;15.48;9.78;;;;;;;0.36;83.06;100555.81;1675711;85;21196;-63
2020/12/02 02:32:12;;;;;;;11.65;8.23;;;;;;;0.29;83.25;100553.55;1638633;85;21730;-63
2020/12/02 02:34:48;;;;;;;11.33;8.38;;;;;;;0.34;82.98;100554.68;1648643;85;21344;-62
2020/12/02 02:37:16;;;;;;;12.75;8.48;;;;;;;0.25;83.05;100553.63;1663519;85;21158;-62
2020/12/02 02:39:45;;;;;;;13.18;8.10;;;;;;;0.26;83.23;100552.09;1655115;85;21192;-63
2020/12/02 02:42:34;;;;;;;11.50;7.33;;;;;;;0.35;82.95;100559.53;1673544;85;21330;-63
2020/12/02 02:45:08;;;;;;;12.40;8.73;;;;;;;0.27;83.13;100548.41;1673688;85;21173;-63
2020/12/02 02:47:35;;;;;;;12.78;8.70;;;;;;;0.35;83.01;100561.70;1651214;85;21761;-63
2020/12/02 02:50:06;;;;;;;14.50;9.10;;;;;;;0.38;82.78;100560.50;1636536;87;21184;-62
2020/12/02 02:52:34;;;;;;;15.15;8.75;;;;;;;0.31;82.98;100556.90;1648250;87;21223;-62
2020/12/02 02:55:01;;;;;;;13.48;9.65;;;;;;;0.27;83.05;100560.45;1626555;86;21136;-63
2020/12/02 02:57:28;;;;;;;12.90;9.10;;;;;;;0.38;82.76;100555.97;1671803;85;21306;-63
2020/12/02 02:59:56;;;;;;;13.22;8.55;;;;;;;0.37;82.59;100556.15;1620278;87;21224;-62
2020/12/02 03:02:23;;;;;;;12.70;9.20;;;;;;;0.29;82.80;100561.09;1607968;87;21176;-61
2020/12/02 03:04:51;;;;;;;14.47;8.73;;;;;;;0.33;82.63;100562.38;1664911;85;21688;-61
2020/12/02 03:07:18;;;;;;;15.58;9.73;;;;;;;0.37;82.33;100562.84;1663698;85;21608;-61
2020/12/02 03:09:45;;;;;;;15.00;9.40;;;;;;;0.31;82.42;100558.23;1619512;87;21168;-61
2020/12/02 03:12:13;;;;;;;14.00;8.43;;;;;;;0.21;82.77;100563.88;1662348;85;21191;-61
2020/12/02 03:14:43;;;;;;;11.73;8.18;;;;;;;0.26;82.66;100557.95;1673130;84;21213;-61
2020/12/02 03:17:14;;;;;;;13.65;9.80;;;;;;;0.32;82.46;100554.02;1612323;88;21173;-61
2020/12/02 03:19:52;;;;;;;15.58;10.28;;;;;;;0.19;82.73;100542.30;1697502;84;21231;-61
2020/12/02 03:22:22;;;;;;;13.72;8.80;;;;;;;0.26;82.90;100557.95;1676945;84;21569;-62
2020/12/02 03:24:52;;;;;;;11.97;8.25;;;;;;;0.32;82.63;100559.37;1688776;84;21323;-61
2020/12/02 03:27:19;;;;;;;10.70;6.92;;;;;;;0.36;82.40;100559.33;1698417;84;21128;-62
2020/12/02 03:29:46;;;;;;;12.47;8.08;;;;;;;0.28;82.44;100555.94;1684428;84;21360;-62
2020/12/02 03:32:14;;;;;;;9.95;7.03;;;;;;;0.22;82.64;100557.48;1679396;84;21153;-62
2020/12/02 03:34:42;;;;;;;11.93;8.00;;;;;;;0.32;82.33;100556.70;1707080;83;21304;-63
2020/12/02 03:37:09;;;;;;;12.88;8.48;;;;;;;0.26;82.37;100552.09;1666589;84;21421;-62
2020/12/02 03:39:37;;;;;;;11.22;7.25;;;;;;;0.17;82.56;100553.72;1706251;83;21287;-62
2020/12/02 03:42:05;;;;;;;13.48;8.98;;;;;;;0.17;82.58;100548.36;1685248;84;21122;-62
2020/12/02 03:44:33;;;;;;;12.53;8.45;;;;;;;0.18;82.46;100548.69;1691951;84;21220;-62
2020/12/02 03:47:00;;;;;;;13.55;8.55;;;;;;;0.10;82.69;100545.59;1670521;85;21535;-61
2020/12/02 03:49:28;;;;;;;13.62;8.85;;;;;;;0.15;82.61;100549.88;1684874;84;21343;-63
2020/12/02 03:51:56;;;;;;;13.25;9.23;;;;;;;0.19;82.38;100553.02;1633766;88;21149;-62
2020/12/02 03:54:23;;;;;;;14.30;8.40;;;;;;;0.08;82.64;100549.45;1698119;84;21335;-62
2020/12/02 03:56:51;;;;;;;14.28;8.50;;;;;;;0.09;82.59;100545.27;1689094;84;21158;-62
2020/12/02 03:59:18;;;;;;;15.15;9.58;;;;;;;0.17;82.34;100548.36;1704554;83;21199;-61
2020/12/02 04:01:45;;;;;;;13.58;8.40;;;;;;;0.04;82.62;100558.89;1671076;84;21596;-62
2020/12/02 04:04:13;;;;;;;14.43;9.50;;;;;;;-0.02;82.84;100563.95;1704928;84;21666;-61
2020/12/02 04:06:40;;;;;;;13.00;8.00;;;;;;;0.03;82.62;100562.07;1705177;84;21169;-63
2020/12/02 04:09:07;;;;;;;13.18;9.35;;;;;;;0.06;82.55;100555.00;1687766;84;21323;-63
2020/12/02 04:11:36;;;;;;;14.25;9.05;;;;;;;-0.03;82.81;100564.95;1662067;84;21169;-62
2020/12/02 04:14:04;;;;;;;14.15;9.48;;;;;;;-0.07;82.96;100559.64;1615746;88;21210;-62
2020/12/02 04:16:31;;;;;;;13.60;9.13;;;;;;;0.06;82.68;100559.02;1696964;83;21827;-62
2020/12/02 04:18:59;;;;;;;14.05;9.80;;;;;;;0.06;82.69;100567.05;1702821;83;21189;-62
2020/12/02 04:21:26;;;;;;;15.18;9.45;;;;;;;0.03;82.76;100564.75;1709877;83;21302;-62
2020/12/02 04:23:54;;;;;;;15.88;9.88;;;;;;;0.11;82.50;100566.52;1725488;83;21156;-61
2020/12/02 04:26:24;;;;;;;16.00;10.38;;;;;;;0.16;82.25;100563.59;1703586;83;21343;-62
2020/12/02 04:28:52;;;;;;;17.02;10.60;;;;;;;0.10;82.35;100557.64;1718823;83;21290;-62
2020/12/02 04:31:19;;;;;;;17.07;10.63;;;;;;;0.04;82.52;100557.55;1721520;83;21585;-61
2020/12/02 04:33:46;;;;;;;15.85;10.60;;;;;;;0.12;82.26;100563.63;1709319;83;21164;-61
2020/12/02 04:36:14;;;;;;;17.32;10.15;;;;;;;0.16;82.00;100564.09;1694547;83;21291;-62
2020/12/02 04:38:41;;;;;;;20.15;11.00;;;;;;;0.08;82.10;100566.34;1696937;83;21188;-62
2020/12/02 04:41:13;;;;;;;17.32;10.98;;;;;;;0.01;82.20;100565.42;1695215;83;21337;-62
2020/12/02 04:43:44;;;;;;;20.37;11.70;;;;;;;0.09;81.84;100563.17;1679683;84;21343;-61
2020/12/02 04:46:19;;;;;;;20.43;12.73;;;;;;;0.08;81.39;100559.66;1674971;83;21172;-62
2020/12/02 04:48:51;;;;;;;16.15;10.48;;;;;;;0.00;81.59;100560.57;1725528;83;21746;-62
2020/12/02 04:51:25;;;;;;;19.00;11.68;;;;;;;-0.06;81.59;100564.49;1723193;83;21157;-62
2020/12/02 04:53:55;;;;;;;18.32;11.53;;;;;;;0.05;81.19;100564.05;1711445;83;21156;-62
2020/12/02 04:56:25;;;;;;;17.23;10.58;;;;;;;0.00;81.18;100552.54;1716932;83;21172;-62
2020/12/02 04:58:53;;;;;;;19.98;12.07;;;;;;;-0.10;81.57;100557.84;1727271;83;22089;-62
2020/12/02 05:01:31;;;;;;;20.65;12.65;;;;;;;-0.07;81.62;100559.64;1710276;83;21302;-62
2020/12/02 05:04:05;;;;;;;22.95;13.15;;;;;;;-0.05;81.50;100556.30;1713947;83;21719;-62
2020/12/02 05:06:45;;;;;;;19.52;12.85;;;;;;;-0.14;81.75;100564.56;1727252;82;21286;-62
2020/12/02 05:09:25;;;;;;;19.92;12.60;;;;;;;-0.09;81.62;100562.19;1702152;83;21314;-61
2020/12/02 05:12:07;;;;;;;20.05;11.73;;;;;;;-0.08;81.51;100559.34;1723963;82;21715;-62
2020/12/02 05:14:38;;;;;;;22.20;12.55;;;;;;;-0.20;81.81;100561.28;1703726;82;21172;-62
2020/12/02 05:17:23;;;;;;;24.60;15.28;;;;;;;-0.13;81.73;100571.59;1700271;84;21646;-62
2020/12/02 05:20:16;;;;;;;25.82;14.10;;;;;;;-0.21;81.84;100564.97;1708494;83;21732;-62
2020/12/02 05:22:48;;;;;;;23.32;13.60;;;;;;;-0.29;82.11;100571.26;1685469;84;21223;-62
2020/12/02 05:25:20;;;;;;;21.70;12.90;;;;;;;-0.20;81.83;100566.14;1702659;84;21188;-63
2020/12/02 05:27:51;;;;;;;28.73;15.40;;;;;;;-0.19;81.88;100566.98;1699551;84;21696;-62
2020/12/02 05:30:34;;;;;;;23.27;14.13;;;;;;;-0.23;82.03;100566.51;1705561;84;21161;-62
2020/12/02 05:33:16;;;;;;;21.17;12.47;;;;;;;-0.16;81.94;100567.44;1685579;84;21304;-62
2020/12/02 05:35:53;;;;;;;23.12;14.10;;;;;;;-0.10;81.61;100562.69;1690799;84;21962;-62
2020/12/02 05:38:35;;;;;;;27.00;14.90;;;;;;;-0.17;81.77;100580.98;1699693;84;21164;-62
2020/12/02 05:41:03;;;;;;;21.95;12.88;;;;;;;-0.18;81.85;100579.34;1669893;84;21604;-62
2020/12/02 05:43:39;;;;;;;24.60;14.65;;;;;;;-0.12;80.98;100581.29;1688928;84;21287;-62
2020/12/02 05:46:10;;;;;;;24.95;14.83;;;;;;;-0.24;81.20;100579.55;1695483;84;21708;-62
2020/12/02 05:48:40;;;;;;;23.07;14.60;;;;;;;-0.32;81.51;100577.48;1680718;84;21763;-62
2020/12/02 05:51:16;;;;;;;23.20;13.45;;;;;;;-0.24;81.10;100580.89;1697143;84;21156;-62
2020/12/02 05:53:59;;;;;;;24.30;13.97;;;;;;;-0.28;80.86;100578.75;1687080;84;21177;-62
2020/12/02 05:56:27;;;;;;;22.93;13.60;;;;;;;-0.42;80.77;100576.37;1659580;84;21545;-62
2020/12/02 05:58:54;;;;;;;27.67;15.58;;;;;;;-0.35;80.82;100585.34;1668182;84;21498;-62
2020/12/02 06:01:22;;;;;;;28.80;17.75;;;;;;;-0.35;80.80;100581.32;1681574;84;21134;-62
2020/12/02 06:03:54;;;;;;;23.92;13.55;;;;;;;-0.43;80.84;100588.10;1692380;84;21137;-62
2020/12/02 06:06:21;;;;;;;27.65;15.13;;;;;;;-0.35;80.72;100588.52;1678598;84;21202;-62
2020/12/02 06:08:51;;;;;;;28.32;14.70;;;;;;;-0.29;80.46;100594.50;1680359;84;21307;-61
2020/12/02 06:11:26;;;;;;;28.45;15.58;;;;;;;-0.35;80.69;100593.86;1700625;83;21167;-64
2020/12/02 06:14:11;;;;;;;24.07;14.38;;;;;;;-0.41;80.88;100594.09;1684726;84;21247;-63
2020/12/02 06:16:45;;;;;;;25.85;14.63;;;;;;;-0.30;80.57;100595.50;1707652;83;21150;-63
2020/12/02 06:19:29;;;;;;;27.15;16.25;;;;;;;-0.27;80.58;100591.12;1741520;79;24725;-61
2020/12/02 06:22:01;;;;;;;26.95;15.05;;;;;;;-0.39;80.87;100594.73;1711773;83;21743;-62
2020/12/02 06:24:44;;;;;;;27.90;15.80;;;;;;;-0.34;80.92;100591.52;1722278;82;22168;-61
2020/12/02 06:27:19;;;;;;;25.57;16.30;;;;;;;-0.29;80.91;100591.32;1715031;83;21121;-61
2020/12/02 06:30:06;;;;;;;31.85;16.87;;;;;;;-0.38;81.27;100588.38;1692115;82;21129;-62
2020/12/02 06:32:35;;;;;;;27.32;14.53;;;;;;;-0.40;81.75;100587.73;1720860;83;21319;-62
2020/12/02 06:35:18;;;;;;;32.35;16.73;;;;;;;-0.27;81.56;100592.46;1676146;84;21291;-63
2020/12/02 06:38:23;;;;;;;28.38;15.50;;;;;;;-0.30;81.72;100593.66;1698337;83;21156;-63
2020/12/02 06:41:04;;;;;;;30.92;15.50;;;;;;;-0.32;81.93;100591.66;1643227;87;21196;-61
2020/12/02 06:43:34;;;;;;;25.12;14.25;;;;;;;-0.12;81.53;100599.52;1625727;87;21185;-62
2020/12/02 06:46:03;;;;;;;27.13;17.27;;;;;;;-0.09;81.48;100599.16;1635253;86;21202;-62
2020/12/02 06:50:06;;;;;;;25.95;14.68;;;;;;;-0.17;81.23;100595.20;1749165;79;23160;-63
2020/12/02 06:55:26;;;;;;;23.25;14.70;;;;;;;-0.04;80.71;100599.42;1754777;79;22585;-60
2020/12/02 06:58:00;;;;;;;31.77;18.45;;;;;;;-0.17;80.77;100599.22;1742850;82;21185;-60
2020/12/02 07:00:30;;;;;;;27.73;16.73;;;;;;;-0.27;81.01;100604.50;1745964;81;21278;-60
2020/12/02 07:03:00;;;;;;;29.20;18.52;;;;;;;-0.18;80.85;100610.13;1743357;82;21655;-61
2020/12/02 07:05:41;;;;;;;36.33;23.75;;;;;;;-0.15;80.34;100611.09;1748723;82;21279;-63
2020/12/02 07:08:20;;;;;;;29.57;16.67;;;;;;;-0.24;80.59;100600.13;1711590;82;21126;-61
2020/12/02 07:11:04;;;;;;;27.25;16.25;;;;;;;-0.30;80.60;100600.86;1745579;82;21680;-61
2020/12/02 07:13:37;;;;;;;37.13;25.82;;;;;;;-0.17;80.27;100605.91;1743015;82;21408;-63
2020/12/02 07:16:29;;;;;;;24.05;13.70;;;;;;;-0.22;80.47;100612.83;1700460;83;21145;-62
2020/12/02 07:19:10;;;;;;;21.73;12.95;;;;;;;-0.29;80.67;100611.39;1729974;82;21327;-62
2020/12/02 07:21:53;;;;;;;24.65;14.20;;;;;;;-0.20;80.69;100604.11;1706492;84;21177;-62
2020/12/02 07:24:40;;;;;;;20.40;12.07;;;;;;;-0.12;80.56;100602.70;1704417;84;21355;-62
2020/12/02 07:27:07;;;;;;;25.15;14.95;;;;;;;-0.18;80.70;100603.44;1675456;84;21137;-63
2020/12/02 07:29:35;;;;;;;25.08;13.75;;;;;;;-0.21;80.81;100599.75;1706746;83;21192;-62
2020/12/02 07:32:16;;;;;;;22.22;14.30;;;;;;;-0.10;80.51;100602.00;1695086;84;21196;-63
2020/12/02 07:34:44;;;;;;;23.27;14.18;;;;;;;-0.11;80.50;100603.03;1685338;84;21319;-61
2020/12/02 07:37:14;;;;;;;22.82;13.40;;;;;;;-0.19;80.75;100605.27;1678597;85;21616;-63
2020/12/02 07:39:53;;;;;;;20.20;12.70;;;;;;;-0.18;80.64;100604.77;1686634;84;21341;-62
2020/12/02 07:42:38;;;;;;;18.62;11.33;;;;;;;-0.07;80.29;100606.98;1691648;84;21302;-61
2020/12/02 07:45:19;;;;;;;17.15;10.58;;;;;;;-0.12;80.31;100609.39;1700737;83;22120;-63
2020/12/02 07:48:04;;;;;;;20.37;12.25;;;;;;;-0.18;80.52;100615.48;1705111;84;21672;-61
2020/12/02 07:50:36;;;;;;;18.25;12.00;;;;;;;-0.08;80.38;100614.70;1698706;84;21298;-63
2020/12/02 07:53:15;;;;;;;23.52;12.43;;;;;;;0.04;80.25;100615.11;1683454;84;21897;-61
2020/12/02 07:55:45;;;;;;;20.30;13.22;;;;;;;-0.02;80.15;100613.47;1670250;84;21622;-63
2020/12/02 07:58:26;;;;;;;19.62;11.63;;;;;;;-0.08;80.25;100610.70;1675036;84;21207;-61
2020/12/02 08:00:53;;;;;;;20.30;12.82;;;;;;;-0.01;79.99;100611.13;1670735;84;21188;-62
2020/12/02 08:03:36;;;;;;;18.75;11.80;;;;;;;0.06;79.89;100611.23;1670789;84;22101;-62
2020/12/02 08:06:14;;;;;;;20.68;13.88;;;;;;;-0.02;80.04;100607.28;1693280;83;21153;-62
2020/12/02 08:08:41;;;;;;;19.62;11.10;;;;;;;-0.07;80.24;100605.64;1676852;83;21331;-62
2020/12/02 08:11:14;;;;;;;19.90;10.25;;;;;;;0.07;79.91;100600.02;1701884;83;21589;-62
2020/12/02 08:13:54;;;;;;;21.12;12.55;;;;;;;0.08;79.94;100608.34;1698349;82;21171;-61
2020/12/02 08:16:32;;;;;;;20.15;11.68;;;;;;;-0.01;80.00;100608.45;1690471;82;21168;-61
2020/12/02 08:19:02;;;;;;;20.77;11.68;;;;;;;-0.07;80.19;100604.31;1699386;82;21189;-60
2020/12/02 08:21:30;;;;;;;22.42;14.15;;;;;;;0.08;79.90;100598.47;1711301;83;21165;-59
2020/12/02 08:24:36;;;;;;;27.05;15.53;;;;;;;0.09;79.85;100599.31;1731490;83;21169;-61
2020/12/02 08:27:05;;;;;;;43.25;27.77;;;;;;;0.04;80.02;100595.83;1709636;82;21140;-61
2020/12/02 08:29:33;;;;;;;34.83;21.25;;;;;;;0.02;80.26;100597.05;1728264;82;21303;-59
2020/12/02 08:32:08;;;;;;;28.07;16.02;;;;;;;0.17;79.94;100594.72;1701275;83;21125;-59
2020/12/02 08:34:37;;;;;;;27.37;16.70;;;;;;;0.17;79.66;100592.54;1700003;83;21363;-59
2020/12/02 08:37:22;;;;;;;28.05;16.62;;;;;;;0.04;79.71;100595.83;1700577;83;21755;-59
2020/12/02 08:39:53;;;;;;;25.00;15.10;;;;;;;-0.01;79.95;100599.59;1670615;84;21332;-59
2020/12/02 08:42:32;;;;;;;22.00;14.83;;;;;;;0.13;79.65;100592.58;1699317;83;21739;-60
2020/12/02 08:45:17;;;;;;;23.70;14.38;;;;;;;0.12;79.65;100594.92;1699062;84;21347;-59
2020/12/02 08:47:54;;;;;;;24.60;15.05;;;;;;;0.03;79.74;100591.52;1699446;83;21168;-59
2020/12/02 08:50:27;;;;;;;26.35;15.78;;;;;;;0.02;79.69;100594.36;1672590;84;21140;-59
2020/12/02 08:52:57;;;;;;;28.20;17.12;;;;;;;0.13;79.37;100587.23;1699932;83;21282;-59
2020/12/02 08:55:24;;;;;;;29.07;16.07;;;;;;;0.07;79.56;100587.47;1697979;82;21141;-59
2020/12/02 08:57:51;;;;;;;28.90;17.17;;;;;;;0.03;79.86;100592.86;1694337;82;21299;-59
2020/12/02 09:00:21;;;;;;;42.73;19.02;;;;;;;0.09;79.90;100588.60;1719778;82;21605;-59
2020/12/02 09:02:49;;;;;;;30.45;17.23;;;;;;;0.20;79.59;100584.13;1720212;82;21291;-59
2020/12/02 09:05:17;;;;;;;30.40;17.77;;;;;;;0.13;79.68;100586.72;1730646;82;21209;-59
2020/12/02 09:07:44;;;;;;;22.02;14.18;;;;;;;0.06;79.94;100578.27;1714808;82;21819;-59
2020/12/02 09:10:11;;;;;;;21.05;14.43;;;;;;;0.12;79.77;100585.05;1702793;83;21170;-59
2020/12/02 09:12:39;;;;;;;18.35;11.60;;;;;;;0.16;79.50;100576.98;1687008;84;21178;-59
2020/12/02 09:15:07;;;;;;;19.32;13.10;;;;;;;0.07;79.73;100574.08;1707089;82;21235;-59
2020/12/02 09:17:34;;;;;;;19.23;12.85;;;;;;;-0.06;79.87;100576.03;1712746;82;21183;-59
2020/12/02 09:20:02;;;;;;;20.60;10.93;;;;;;;0.01;79.87;100572.11;1709577;82;21217;-59
2020/12/02 09:22:30;;;;;;;21.07;13.48;;;;;;;0.08;79.79;100566.34;1730359;82;21188;-59
2020/12/02 09:24:57;;;;;;;19.75;11.97;;;;;;;0.05;80.12;100571.23;1739640;82;21174;-59
2020/12/02 09:27:24;;;;;;;20.43;12.47;;;;;;;0.00;80.22;100569.94;1690289;82;21207;-59
2020/12/02 09:29:52;;;;;;;18.85;12.10;;;;;;;0.06;79.99;100567.05;1698829;82;21189;-59
2020/12/02 09:32:20;;;;;;;19.48;12.73;;;;;;;0.14;79.66;100561.62;1725344;82;21172;-59
2020/12/02 09:34:48;;;;;;;20.82;11.05;;;;;;;0.13;79.93;100563.13;1728750;82;21178;-59
2020/12/02 09:37:16;;;;;;;19.55;12.40;;;;;;;0.09;79.91;100562.66;1736047;82;21169;-59
2020/12/02 09:39:43;;;;;;;20.68;11.93;;;;;;;0.14;79.62;100562.95;1737665;82;21369;-59
2020/12/02 09:42:53;;;;;;;18.23;12.05;;;;;;;0.25;79.38;100558.98;1715702;82;21154;-60
2020/12/02 09:45:52;;;;;;;20.05;12.18;;;;;;;0.20;79.46;100563.55;1735421;82;21165;-59
2020/12/02 09:48:23;;;;;;;21.10;13.05;;;;;;;0.08;79.65;100565.52;1723297;82;21178;-59
2020/12/02 09:50:50;;;;;;;23.62;13.28;;;;;;;0.16;79.48;100560.91;1721809;82;21194;-59
2020/12/02 09:53:28;;;;;;;21.82;14.60;;;;;;;0.17;79.23;100563.09;1694434;84;21161;-59
2020/12/02 09:55:55;;;;;;;26.90;16.20;;;;;;;0.08;79.49;100566.34;1705728;83;21303;-59
2020/12/02 09:58:24;;;;;;;24.10;15.48;;;;;;;0.05;79.77;100560.03;1694863;84;21167;-59
2020/12/02 10:00:59;;;;;;;23.95;15.43;;;;;;;0.20;79.53;100563.55;1700374;84;21151;-59
2020/12/02 10:03:47;;;;;;;22.98;15.30;;;;;;;0.23;79.31;100561.84;1700310;84;21615;-59
2020/12/02 10:06:39;;;;;;;;;;;;;;;0.21;79.72;100565.22;1703860;84;21133;-59
2020/12/02 10:09:15;;;;;;;19.10;13.08;;;;;;;0.16;79.54;100560.91;1700288;84;20193;-59
2020/12/02 10:12:12;;;;;;;22.62;14.40;;;;;;;0.25;79.33;100561.66;1696054;84;21176;-59
2020/12/02 10:14:51;;;;;;;19.70;12.40;;;;;;;0.27;79.41;100563.13;1701470;84;21177;-59
2020/12/02 10:17:33;;;;;;;21.68;13.50;;;;;;;0.21;79.58;100561.70;1700839;84;21168;-59
2020/12/02 10:20:21;;;;;;;16.97;11.22;;;;;;;0.15;79.62;100564.59;1700081;84;21425;-59
2020/12/02 10:23:00;;;;;;;21.87;13.93;;;;;;;0.28;79.25;100560.78;1683989;84;21242;-59
2020/12/02 10:25:48;;;;;;;21.05;13.95;;;;;;;0.20;79.34;100557.36;1701400;84;21191;-59
2020/12/02 10:28:31;;;;;;;20.82;13.08;;;;;;;0.09;79.55;100558.65;1701646;83;21152;-58
2020/12/02 10:31:08;;;;;;;20.75;12.47;;;;;;;0.16;79.52;100558.23;1671918;84;21129;-59
2020/12/02 10:34:04;;;;;;;15.80;10.85;;;;;;;0.23;79.15;100562.34;1701103;84;21317;-58
2020/12/02 10:36:36;;;;;;;16.48;10.72;;;;;;;0.15;79.08;100557.91;1700940;84;21132;-58
2020/12/02 10:39:08;;;;;;;16.00;10.23;;;;;;;0.04;79.37;100554.34;1701218;84;21189;-59
2020/12/02 10:42:14;;;;;;;17.52;10.65;;;;;;;0.14;79.20;100562.13;1701446;83;21169;-59
2020/12/02 10:45:05;;;;;;;16.05;9.55;;;;;;;0.14;79.19;100551.41;1701840;84;21597;-59
2020/12/02 10:48:02;;;;;;;16.23;10.60;;;;;;;0.06;79.46;100555.00;1699744;84;21846;-58
2020/12/02 10:50:34;;;;;;;15.25;9.85;;;;;;;0.09;79.52;100557.31;1692722;84;21331;-59
2020/12/02 10:53:12;;;;;;;15.68;10.95;;;;;;;0.19;79.30;100551.67;1699976;84;21188;-59
2020/12/02 10:55:41;;;;;;;15.03;9.43;;;;;;;0.09;79.29;100557.31;1726326;81;21166;-59
2020/12/02 10:58:24;;;;;;;16.97;10.20;;;;;;;0.00;79.57;100557.09;1701300;82;21188;-59
2020/12/02 11:00:54;;;;;;;18.48;11.88;;;;;;;0.08;79.55;100554.80;1723008;82;21308;-59
2020/12/02 11:03:35;;;;;;;21.97;13.38;;;;;;;0.07;79.62;100555.84;1694498;85;21791;-59
2020/12/02 11:06:16;;;;;;;17.82;11.08;;;;;;;0.01;79.97;100553.38;1697885;82;21165;-59
2020/12/02 11:09:04;;;;;;;16.35;10.35;;;;;;;0.00;80.17;100552.54;1712073;82;21146;-59
2020/12/02 11:12:27;;;;;;;16.80;11.30;;;;;;;0.21;79.88;100545.14;1731725;83;21154;-59
2020/12/02 11:15:36;;;;;;;17.45;11.48;;;;;;;0.26;79.89;100553.93;1712798;82;21167;-59
2020/12/02 11:18:34;;;;;;;;;;;;;;;0.18;80.21;100550.03;1735465;82;21308;-59
2020/12/02 11:21:51;;;;;;;16.93;11.48;;;;;;;0.23;80.03;100547.11;1716800;82;20155;-59
2020/12/02 11:24:47;;;;;;;20.08;12.37;;;;;;;0.30;79.77;100535.14;1695449;82;21133;-59
2020/12/02 11:27:14;;;;;;;21.75;12.75;;;;;;;0.20;79.98;100539.95;1704653;82;21145;-58
2020/12/02 11:29:43;;;;;;;19.92;12.80;;;;;;;0.11;80.23;100543.22;1722493;82;21189;-60
2020/12/02 11:32:58;;;;;;;19.45;13.13;;;;;;;0.18;80.11;100540.12;1731338;83;21169;-61
2020/12/02 11:35:54;;;;;;;20.72;13.15;;;;;;;0.25;80.05;100538.37;1700658;82;21340;-59
2020/12/02 11:38:41;;;;;;;20.00;12.43;;;;;;;0.16;80.31;100540.00;1730801;82;21203;-59
2020/12/02 11:41:24;;;;;;;;;;;;;;;0.21;80.15;100541.63;1701580;82;21157;-59
2020/12/02 11:43:55;;;;;;;18.35;11.25;;;;;;;0.29;79.88;100536.98;1700309;82;20161;-59
2020/12/02 11:46:23;;;;;;;22.10;13.28;;;;;;;0.13;80.41;100537.19;1726196;82;21582;-59
2020/12/02 11:49:02;;;;;;;20.95;13.70;;;;;;;0.09;80.56;100539.08;1729301;82;21133;-60
2020/12/02 11:52:20;;;;;;;23.73;14.05;;;;;;;0.15;80.38;100543.17;1731504;82;21795;-61
2020/12/02 11:54:48;;;;;;;23.77;14.70;;;;;;;0.27;80.01;100540.88;1717868;82;21271;-60
2020/12/02 11:57:15;;;;;;;25.48;15.15;;;;;;;0.17;80.33;100542.50;1741701;81;21307;-60
2020/12/02 11:59:42;;;;;;;21.87;14.15;;;;;;;0.12;80.65;100542.22;1719347;81;21179;-60
2020/12/02 12:02:45;;;;;;;23.47;14.00;;;;;;;0.17;80.46;100538.98;1755454;81;21712;-59